sensor_id;sensor_type;location;lat;lon;timestamp;pressure;altitude;pressure_sealevel;temperature;humidity
43450;BME280;29041;42.266;23.110;2023-02-28T00:00:09;65089.22;;;-147.77;100.00
43450;BME280;29041;42.266;23.110;2023-02-28T00:03:01;65089.22;;;-147.77;100.00
43450;BME280;29041;42.266;23.110;2023-02-28T00:05:55;65089.22;;;-147.77;100.00
43450;BME280;29041;42.266;23.110;2023-02-28T00:08:43;65089.22;;;-147.77;100.00
43450;BME280;29041;42.266;23.110;2023-02-28T00:11:37;65089.22;;;-147.77;100.00
43450;BME280;29041;42.266;23.110;2023-02-28T00:16:59;65089.22;;;-147.77;100.00
43450;BME280;29041;42.266;23.110;2023-02-28T00:19:47;65089.22;;;-147.77;100.00
43450;BME280;29041;42.266;23.110;2023-02-28T00:22:40;65089.22;;;-147.77;100.00
43450;BME280;29041;42.266;23.110;2023-02-28T00:25:28;65089.22;;;-147.77;100.00
43450;BME280;29041;42.266;23.110;2023-02-28T00:28:40;65089.22;;;-147.77;100.00
43450;BME280;29041;42.266;23.110;2023-02-28T00:31:27;65089.22;;;-147.77;100.00
43450;BME280;29041;42.266;23.110;2023-02-28T00:34:16;65089.22;;;-147.77;100.00
43450;BME280;29041;42.266;23.110;2023-02-28T00:39:43;65089.22;;;-147.77;100.00
43450;BME280;29041;42.266;23.110;2023-02-28T00:42:31;65089.22;;;-147.77;100.00
43450;BME280;29041;42.266;23.110;2023-02-28T00:45:19;65089.22;;;-147.77;100.00
43450;BME280;29041;42.266;23.110;2023-02-28T00:48:07;65089.22;;;-147.77;100.00
43450;BME280;29041;42.266;23.110;2023-02-28T00:50:54;65089.22;;;-147.77;100.00
43450;BME280;29041;42.266;23.110;2023-02-28T00:53:45;65089.22;;;-147.77;100.00
43450;BME280;29041;42.266;23.110;2023-02-28T00:59:08;65089.22;;;-147.77;100.00
43450;BME280;29041;42.266;23.110;2023-02-28T01:01:56;65089.22;;;-147.77;100.00
43450;BME280;29041;42.266;23.110;2023-02-28T01:04:45;65089.22;;;-147.77;100.00
43450;BME280;29041;42.266;23.110;2023-02-28T01:07:32;65089.22;;;-147.77;100.00
43450;BME280;29041;42.266;23.110;2023-02-28T01:10:24;65089.22;;;-147.77;100.00
43450;BME280;29041;42.266;23.110;2023-02-28T01:13:12;65089.22;;;-147.77;100.00
43450;BME280;29041;42.266;23.110;2023-02-28T01:18:31;65089.22;;;-147.77;100.00
43450;BME280;29041;42.266;23.110;2023-02-28T01:21:20;65089.22;;;-147.77;100.00
43450;BME280;29041;42.266;23.110;2023-02-28T01:24:08;65089.22;;;-147.77;100.00
43450;BME280;29041;42.266;23.110;2023-02-28T01:26:55;65089.22;;;-147.77;100.00
43450;BME280;29041;42.266;23.110;2023-02-28T01:29:42;65089.22;;;-147.77;100.00
43450;BME280;29041;42.266;23.110;2023-02-28T01:32:29;65089.22;;;-147.77;100.00
43450;BME280;29041;42.266;23.110;2023-02-28T01:35:19;65089.22;;;-147.77;100.00
43450;BME280;29041;42.266;23.110;2023-02-28T01:38:21;65089.22;;;-147.77;100.00
43450;BME280;29041;42.266;23.110;2023-02-28T01:41:15;65089.22;;;-147.77;100.00
43450;BME280;29041;42.266;23.110;2023-02-28T01:44:05;65089.22;;;-147.77;100.00
43450;BME280;29041;42.266;23.110;2023-02-28T01:51:55;65089.22;;;-147.77;100.00
43450;BME280;29041;42.266;23.110;2023-02-28T01:54:45;65089.22;;;-147.77;100.00
43450;BME280;29041;42.266;23.110;2023-02-28T01:57:38;65089.22;;;-147.77;100.00
43450;BME280;29041;42.266;23.110;2023-02-28T02:00:28;65089.22;;;-147.77;100.00
43450;BME280;29041;42.266;23.110;2023-02-28T02:03:18;65089.22;;;-147.77;100.00
43450;BME280;29041;42.266;23.110;2023-02-28T02:11:20;65089.22;;;-147.77;100.00
43450;BME280;29041;42.266;23.110;2023-02-28T02:14:31;65089.22;;;-147.77;100.00
43450;BME280;29041;42.266;23.110;2023-02-28T02:17:29;65089.22;;;-147.77;100.00
43450;BME280;29041;42.266;23.110;2023-02-28T02:20:46;65089.22;;;-147.77;100.00
43450;BME280;29041;42.266;23.110;2023-02-28T02:27:33;65089.22;;;-147.77;100.00
43450;BME280;29041;42.266;23.110;2023-02-28T02:30:54;65089.22;;;-147.77;100.00
43450;BME280;29041;42.266;23.110;2023-02-28T02:34:13;65089.22;;;-147.77;100.00
43450;BME280;29041;42.266;23.110;2023-02-28T02:37:15;65089.22;;;-147.77;100.00
43450;BME280;29041;42.266;23.110;2023-02-28T02:40:11;65089.22;;;-147.77;100.00
43450;BME280;29041;42.266;23.110;2023-02-28T02:43:03;65089.22;;;-147.77;100.00
43450;BME280;29041;42.266;23.110;2023-02-28T02:45:55;65089.22;;;-147.77;100.00
43450;BME280;29041;42.266;23.110;2023-02-28T02:48:46;65089.22;;;-147.77;100.00
43450;BME280;29041;42.266;23.110;2023-02-28T02:51:38;65089.22;;;-147.77;100.00
43450;BME280;29041;42.266;23.110;2023-02-28T02:54:28;65089.22;;;-147.77;100.00
43450;BME280;29041;42.266;23.110;2023-02-28T02:57:21;65089.22;;;-147.77;100.00
43450;BME280;29041;42.266;23.110;2023-02-28T03:00:11;65089.22;;;-147.77;100.00
43450;BME280;29041;42.266;23.110;2023-02-28T03:08:07;65089.22;;;-147.77;100.00
43450;BME280;29041;42.266;23.110;2023-02-28T03:10:57;65089.22;;;-147.77;100.00
43450;BME280;29041;42.266;23.110;2023-02-28T03:14:01;65089.22;;;-147.77;100.00
43450;BME280;29041;42.266;23.110;2023-02-28T03:17:02;65089.22;;;-147.77;100.00
43450;BME280;29041;42.266;23.110;2023-02-28T03:20:03;65089.22;;;-147.77;100.00
43450;BME280;29041;42.266;23.110;2023-02-28T03:23:00;65089.22;;;-147.77;100.00
43450;BME280;29041;42.266;23.110;2023-02-28T03:25:56;65089.22;;;-147.77;100.00
43450;BME280;29041;42.266;23.110;2023-02-28T03:28:52;65089.22;;;-147.77;100.00
43450;BME280;29041;42.266;23.110;2023-02-28T03:31:45;65089.22;;;-147.77;100.00
43450;BME280;29041;42.266;23.110;2023-02-28T03:34:37;65089.22;;;-147.77;100.00
43450;BME280;29041;42.266;23.110;2023-02-28T03:37:27;65089.22;;;-147.77;100.00
43450;BME280;29041;42.266;23.110;2023-02-28T03:42:56;65089.22;;;-147.77;100.00
43450;BME280;29041;42.266;23.110;2023-02-28T03:45:46;65089.22;;;-147.77;100.00
43450;BME280;29041;42.266;23.110;2023-02-28T03:48:43;65089.22;;;-147.77;100.00
43450;BME280;29041;42.266;23.110;2023-02-28T03:56:45;65089.22;;;-147.77;100.00
43450;BME280;29041;42.266;23.110;2023-02-28T03:59:39;65089.22;;;-147.77;100.00
43450;BME280;29041;42.266;23.110;2023-02-28T04:05:04;65089.22;;;-147.77;100.00
43450;BME280;29041;42.266;23.110;2023-02-28T04:10:27;65089.22;;;-147.77;100.00
43450;BME280;29041;42.266;23.110;2023-02-28T04:13:14;65089.22;;;-147.77;100.00
43450;BME280;29041;42.266;23.110;2023-02-28T04:16:06;65089.22;;;-147.77;100.00
43450;BME280;29041;42.266;23.110;2023-02-28T04:19:09;65089.22;;;-147.77;100.00
43450;BME280;29041;42.266;23.110;2023-02-28T04:21:56;65089.22;;;-147.77;100.00
43450;BME280;29041;42.266;23.110;2023-02-28T04:24:44;65089.22;;;-147.77;100.00
43450;BME280;29041;42.266;23.110;2023-02-28T04:30:09;65089.22;;;-147.77;100.00
43450;BME280;29041;42.266;23.110;2023-02-28T04:32:58;65089.22;;;-147.77;100.00
43450;BME280;29041;42.266;23.110;2023-02-28T04:38:44;65089.22;;;-147.77;100.00
43450;BME280;29041;42.266;23.110;2023-02-28T04:41:31;65089.22;;;-147.77;100.00
43450;BME280;29041;42.266;23.110;2023-02-28T04:44:19;65089.22;;;-147.77;100.00
43450;BME280;29041;42.266;23.110;2023-02-28T04:47:06;65089.22;;;-147.77;100.00
43450;BME280;29041;42.266;23.110;2023-02-28T04:57:40;65089.22;;;-147.77;100.00
43450;BME280;29041;42.266;23.110;2023-02-28T05:00:28;65089.22;;;-147.77;100.00
43450;BME280;29041;42.266;23.110;2023-02-28T05:03:16;65089.22;;;-147.77;100.00
43450;BME280;29041;42.266;23.110;2023-02-28T05:06:03;65089.22;;;-147.77;100.00
43450;BME280;29041;42.266;23.110;2023-02-28T05:08:51;65089.22;;;-147.77;100.00
43450;BME280;29041;42.266;23.110;2023-02-28T05:12:04;65089.22;;;-147.77;100.00
43450;BME280;29041;42.266;23.110;2023-02-28T05:14:55;65089.22;;;-147.77;100.00
43450;BME280;29041;42.266;23.110;2023-02-28T05:17:43;65089.22;;;-147.77;100.00
43450;BME280;29041;42.266;23.110;2023-02-28T05:20:37;65089.22;;;-147.77;100.00
43450;BME280;29041;42.266;23.110;2023-02-28T05:26:48;65089.22;;;-147.77;100.00
43450;BME280;29041;42.266;23.110;2023-02-28T05:29:50;65089.22;;;-147.77;100.00
43450;BME280;29041;42.266;23.110;2023-02-28T05:32:41;65089.22;;;-147.77;100.00
43450;BME280;29041;42.266;23.110;2023-02-28T05:35:45;65089.22;;;-147.77;100.00
43450;BME280;29041;42.266;23.110;2023-02-28T05:38:48;65089.22;;;-147.77;100.00
43450;BME280;29041;42.266;23.110;2023-02-28T05:41:45;65089.22;;;-147.77;100.00
43450;BME280;29041;42.266;23.110;2023-02-28T06:02:40;65089.22;;;-147.77;100.00
43450;BME280;29041;42.266;23.110;2023-02-28T06:05:27;65089.22;;;-147.77;100.00
43450;BME280;29041;42.266;23.110;2023-02-28T06:10:46;65089.22;;;-147.77;100.00
43450;BME280;29041;42.266;23.110;2023-02-28T06:13:42;65089.22;;;-147.77;100.00
43450;BME280;29041;42.266;23.110;2023-02-28T06:16:46;65089.22;;;-147.77;100.00
43450;BME280;29041;42.266;23.110;2023-02-28T06:19:38;65089.22;;;-147.77;100.00
43450;BME280;29041;42.266;23.110;2023-02-28T06:22:30;65089.22;;;-147.77;100.00
43450;BME280;29041;42.266;23.110;2023-02-28T06:25:26;65089.22;;;-147.77;100.00
43450;BME280;29041;42.266;23.110;2023-02-28T06:28:29;65089.22;;;-147.77;100.00
43450;BME280;29041;42.266;23.110;2023-02-28T06:31:17;65089.22;;;-147.77;100.00
43450;BME280;29041;42.266;23.110;2023-02-28T06:34:05;65089.22;;;-147.77;100.00
43450;BME280;29041;42.266;23.110;2023-02-28T06:37:02;65089.22;;;-147.77;100.00
43450;BME280;29041;42.266;23.110;2023-02-28T06:40:02;65089.22;;;-147.77;100.00
43450;BME280;29041;42.266;23.110;2023-02-28T06:42:55;65089.22;;;-147.77;100.00
43450;BME280;29041;42.266;23.110;2023-02-28T06:45:44;65089.22;;;-147.77;100.00
43450;BME280;29041;42.266;23.110;2023-02-28T06:48:33;65089.22;;;-147.77;100.00
43450;BME280;29041;42.266;23.110;2023-02-28T06:51:22;65089.22;;;-147.77;100.00
43450;BME280;29041;42.266;23.110;2023-02-28T06:54:17;65089.22;;;-147.77;100.00
43450;BME280;29041;42.266;23.110;2023-02-28T06:57:09;65089.22;;;-147.77;100.00
43450;BME280;29041;42.266;23.110;2023-02-28T06:59:58;65089.22;;;-147.77;100.00
43450;BME280;29041;42.266;23.110;2023-02-28T07:03:03;65089.22;;;-147.77;100.00
43450;BME280;29041;42.266;23.110;2023-02-28T07:05:55;65089.22;;;-147.77;100.00
43450;BME280;29041;42.266;23.110;2023-02-28T07:08:44;65089.22;;;-147.77;100.00
43450;BME280;29041;42.266;23.110;2023-02-28T07:11:34;65089.22;;;-147.77;100.00
43450;BME280;29041;42.266;23.110;2023-02-28T07:14:26;65089.22;;;-147.77;100.00
43450;BME280;29041;42.266;23.110;2023-02-28T07:17:13;65089.22;;;-147.77;100.00
43450;BME280;29041;42.266;23.110;2023-02-28T07:20:01;65089.22;;;-147.77;100.00
43450;BME280;29041;42.266;23.110;2023-02-28T07:25:16;65089.22;;;-147.77;100.00
43450;BME280;29041;42.266;23.110;2023-02-28T07:28:20;65089.22;;;-147.77;100.00
43450;BME280;29041;42.266;23.110;2023-02-28T07:31:09;65089.22;;;-147.77;100.00
43450;BME280;29041;42.266;23.110;2023-02-28T07:33:58;65089.22;;;-147.77;100.00
43450;BME280;29041;42.266;23.110;2023-02-28T07:36:47;65089.22;;;-147.77;100.00
43450;BME280;29041;42.266;23.110;2023-02-28T07:39:40;65089.22;;;-147.77;100.00
43450;BME280;29041;42.266;23.110;2023-02-28T07:42:38;65089.22;;;-147.77;100.00
43450;BME280;29041;42.266;23.110;2023-02-28T07:45:43;65089.22;;;-147.77;100.00
43450;BME280;29041;42.266;23.110;2023-02-28T07:48:33;65089.22;;;-147.77;100.00
43450;BME280;29041;42.266;23.110;2023-02-28T07:51:23;65089.22;;;-147.77;100.00
43450;BME280;29041;42.266;23.110;2023-02-28T07:54:10;65089.22;;;-147.77;100.00
43450;BME280;29041;42.266;23.110;2023-02-28T07:56:59;65089.22;;;-147.77;100.00
43450;BME280;29041;42.266;23.110;2023-02-28T08:00:02;65089.22;;;-147.77;100.00
43450;BME280;29041;42.266;23.110;2023-02-28T08:02:51;65089.22;;;-147.77;100.00
43450;BME280;29041;42.266;23.110;2023-02-28T08:05:58;65089.22;;;-147.77;100.00
43450;BME280;29041;42.266;23.110;2023-02-28T08:08:56;65089.22;;;-147.77;100.00
43450;BME280;29041;42.266;23.110;2023-02-28T08:11:53;65089.22;;;-147.77;100.00
43450;BME280;29041;42.266;23.110;2023-02-28T08:14:46;65089.22;;;-147.77;100.00
43450;BME280;29041;42.266;23.110;2023-02-28T08:17:40;65089.22;;;-147.77;100.00
43450;BME280;29041;42.266;23.110;2023-02-28T08:20:31;65089.22;;;-147.77;100.00
43450;BME280;29041;42.266;23.110;2023-02-28T08:23:25;65089.22;;;-147.77;100.00
43450;BME280;29041;42.266;23.110;2023-02-28T08:26:27;65089.22;;;-147.77;100.00
43450;BME280;29041;42.266;23.110;2023-02-28T08:29:30;65089.22;;;-147.77;100.00
43450;BME280;29041;42.266;23.110;2023-02-28T08:32:22;65089.22;;;-147.77;100.00
43450;BME280;29041;42.266;23.110;2023-02-28T08:35:12;65089.22;;;-147.77;100.00
43450;BME280;29041;42.266;23.110;2023-02-28T08:38:21;65089.22;;;-147.77;100.00
43450;BME280;29041;42.266;23.110;2023-02-28T08:41:10;65089.22;;;-147.77;100.00
43450;BME280;29041;42.266;23.110;2023-02-28T08:44:11;65089.22;;;-147.77;100.00
43450;BME280;29041;42.266;23.110;2023-02-28T08:47:05;65089.22;;;-147.77;100.00
43450;BME280;29041;42.266;23.110;2023-02-28T08:50:00;65089.22;;;-147.77;100.00
43450;BME280;29041;42.266;23.110;2023-02-28T08:53:07;65089.22;;;-147.77;100.00
43450;BME280;29041;42.266;23.110;2023-02-28T08:56:10;65089.22;;;-147.77;100.00
43450;BME280;29041;42.266;23.110;2023-02-28T09:02:12;65089.22;;;-147.77;100.00
43450;BME280;29041;42.266;23.110;2023-02-28T09:05:10;65089.22;;;-147.77;100.00
43450;BME280;29041;42.266;23.110;2023-02-28T09:08:14;65089.22;;;-147.77;100.00
43450;BME280;29041;42.266;23.110;2023-02-28T09:11:48;65089.22;;;-147.77;100.00
43450;BME280;29041;42.266;23.110;2023-02-28T09:14:59;65089.22;;;-147.77;100.00
43450;BME280;29041;42.266;23.110;2023-02-28T09:17:52;65089.22;;;-147.77;100.00
43450;BME280;29041;42.266;23.110;2023-02-28T09:20:44;65089.22;;;-147.77;100.00
43450;BME280;29041;42.266;23.110;2023-02-28T09:23:41;65089.22;;;-147.77;100.00
43450;BME280;29041;42.266;23.110;2023-02-28T09:26:55;65089.22;;;-147.77;100.00
43450;BME280;29041;42.266;23.110;2023-02-28T09:45:47;65089.22;;;-147.77;100.00
43450;BME280;29041;42.266;23.110;2023-02-28T10:50:53;65089.22;;;-147.77;100.00
43450;BME280;29041;42.266;23.110;2023-02-28T11:41:09;65089.22;;;-147.77;100.00
43450;BME280;29041;42.266;23.110;2023-02-28T11:47:18;65089.22;;;-147.77;100.00
43450;BME280;29041;42.266;23.110;2023-02-28T11:54:17;65089.22;;;-147.77;100.00
43450;BME280;29041;42.266;23.110;2023-02-28T11:57:52;65089.22;;;-147.77;100.00
43450;BME280;29041;42.266;23.110;2023-02-28T12:01:13;65089.22;;;-147.77;100.00
43450;BME280;29041;42.266;23.110;2023-02-28T12:06:51;65089.22;;;-147.77;100.00
43450;BME280;29041;42.266;23.110;2023-02-28T12:09:55;65089.22;;;-147.77;100.00
43450;BME280;29041;42.266;23.110;2023-02-28T12:12:48;65089.22;;;-147.77;100.00
43450;BME280;29041;42.266;23.110;2023-02-28T12:19:16;65089.22;;;-147.77;100.00
43450;BME280;29041;42.266;23.110;2023-02-28T12:22:19;65089.22;;;-147.77;100.00
43450;BME280;29041;42.266;23.110;2023-02-28T12:28:41;65089.22;;;-147.77;100.00
43450;BME280;29041;42.266;23.110;2023-02-28T12:31:55;65089.22;;;-147.77;100.00
43450;BME280;29041;42.266;23.110;2023-02-28T12:35:11;65089.22;;;-147.77;100.00
43450;BME280;29041;42.266;23.110;2023-02-28T12:38:12;65089.22;;;-147.77;100.00
43450;BME280;29041;42.266;23.110;2023-02-28T12:41:13;65089.22;;;-147.77;100.00
43450;BME280;29041;42.266;23.110;2023-02-28T12:44:08;65089.22;;;-147.77;100.00
43450;BME280;29041;42.266;23.110;2023-02-28T13:11:58;65089.22;;;-147.77;100.00
43450;BME280;29041;42.266;23.110;2023-02-28T13:15:07;65089.22;;;-147.77;100.00
43450;BME280;29041;42.266;23.110;2023-02-28T13:18:02;65089.22;;;-147.77;100.00
43450;BME280;29041;42.266;23.110;2023-02-28T13:20:52;65089.22;;;-147.77;100.00
43450;BME280;29041;42.266;23.110;2023-02-28T13:23:59;65089.22;;;-147.77;100.00
43450;BME280;29041;42.266;23.110;2023-02-28T14:03:16;65089.22;;;-147.77;100.00
43450;BME280;29041;42.266;23.110;2023-02-28T14:06:23;65089.22;;;-147.77;100.00
43450;BME280;29041;42.266;23.110;2023-02-28T14:09:21;65089.22;;;-147.77;100.00
43450;BME280;29041;42.266;23.110;2023-02-28T14:15:55;65089.22;;;-147.77;100.00
43450;BME280;29041;42.266;23.110;2023-02-28T14:18:51;65089.22;;;-147.77;100.00
43450;BME280;29041;42.266;23.110;2023-02-28T14:21:58;65089.22;;;-147.77;100.00
43450;BME280;29041;42.266;23.110;2023-02-28T14:25:04;65089.22;;;-147.77;100.00
43450;BME280;29041;42.266;23.110;2023-02-28T14:28:09;65089.22;;;-147.77;100.00
43450;BME280;29041;42.266;23.110;2023-02-28T14:31:07;65089.22;;;-147.77;100.00
43450;BME280;29041;42.266;23.110;2023-02-28T14:34:29;65089.22;;;-147.77;100.00
43450;BME280;29041;42.266;23.110;2023-02-28T14:37:27;65089.22;;;-147.77;100.00
43450;BME280;29041;42.266;23.110;2023-02-28T14:40:17;65089.22;;;-147.77;100.00
43450;BME280;29041;42.266;23.110;2023-02-28T14:45:49;65089.22;;;-147.77;100.00
43450;BME280;29041;42.266;23.110;2023-02-28T14:48:45;65089.22;;;-147.77;100.00
43450;BME280;29041;42.266;23.110;2023-02-28T14:51:42;65089.22;;;-147.77;100.00
43450;BME280;29041;42.266;23.110;2023-02-28T14:54:31;65089.22;;;-147.77;100.00
43450;BME280;29041;42.266;23.110;2023-02-28T14:57:23;65089.22;;;-147.77;100.00
43450;BME280;29041;42.266;23.110;2023-02-28T15:00:23;65089.22;;;-147.77;100.00
43450;BME280;29041;42.266;23.110;2023-02-28T15:03:30;65089.22;;;-147.77;100.00
43450;BME280;29041;42.266;23.110;2023-02-28T15:06:16;65089.22;;;-147.77;100.00
43450;BME280;29041;42.266;23.110;2023-02-28T15:09:38;65089.22;;;-147.77;100.00
43450;BME280;29041;42.266;23.110;2023-02-28T15:12:28;65089.22;;;-147.77;100.00
43450;BME280;29041;42.266;23.110;2023-02-28T15:15:22;65089.22;;;-147.77;100.00
43450;BME280;29041;42.266;23.110;2023-02-28T15:18:23;65089.22;;;-147.77;100.00
43450;BME280;29041;42.266;23.110;2023-02-28T15:21:14;65089.22;;;-147.77;100.00
43450;BME280;29041;42.266;23.110;2023-02-28T15:24:12;65089.22;;;-147.77;100.00
43450;BME280;29041;42.266;23.110;2023-02-28T15:27:05;65089.22;;;-147.77;100.00
43450;BME280;29041;42.266;23.110;2023-02-28T15:29:56;65089.22;;;-147.77;100.00
43450;BME280;29041;42.266;23.110;2023-02-28T15:33:05;65089.22;;;-147.77;100.00
43450;BME280;29041;42.266;23.110;2023-02-28T15:36:17;65089.22;;;-147.77;100.00
43450;BME280;29041;42.266;23.110;2023-02-28T15:39:20;65089.22;;;-147.77;100.00
43450;BME280;29041;42.266;23.110;2023-02-28T15:42:18;65089.22;;;-147.77;100.00
43450;BME280;29041;42.266;23.110;2023-02-28T15:45:28;65089.22;;;-147.77;100.00
43450;BME280;29041;42.266;23.110;2023-02-28T15:48:19;65089.22;;;-147.77;100.00
43450;BME280;29041;42.266;23.110;2023-02-28T15:51:14;65089.22;;;-147.77;100.00
43450;BME280;29041;42.266;23.110;2023-02-28T15:54:05;65089.22;;;-147.77;100.00
43450;BME280;29041;42.266;23.110;2023-02-28T15:56:58;65089.22;;;-147.77;100.00
43450;BME280;29041;42.266;23.110;2023-02-28T15:59:52;65089.22;;;-147.77;100.00
43450;BME280;29041;42.266;23.110;2023-02-28T16:02:41;65089.22;;;-147.77;100.00
43450;BME280;29041;42.266;23.110;2023-02-28T16:05:30;65089.22;;;-147.77;100.00
43450;BME280;29041;42.266;23.110;2023-02-28T16:08:19;65089.22;;;-147.77;100.00
43450;BME280;29041;42.266;23.110;2023-02-28T16:11:08;65089.22;;;-147.77;100.00
43450;BME280;29041;42.266;23.110;2023-02-28T16:14:01;65089.22;;;-147.77;100.00
43450;BME280;29041;42.266;23.110;2023-02-28T16:17:02;65089.22;;;-147.77;100.00
43450;BME280;29041;42.266;23.110;2023-02-28T16:20:11;65089.22;;;-147.77;100.00
43450;BME280;29041;42.266;23.110;2023-02-28T16:23:09;65089.22;;;-147.77;100.00
43450;BME280;29041;42.266;23.110;2023-02-28T16:25:58;65089.22;;;-147.77;100.00
43450;BME280;29041;42.266;23.110;2023-02-28T16:59:42;96225.53;;;9.48;98.73
43450;BME280;29041;42.266;23.110;2023-02-28T17:21:07;96211.19;;;9.30;97.56
43450;BME280;29041;42.266;23.110;2023-02-28T17:23:58;96213.72;;;9.49;95.73
43450;BME280;29041;42.266;23.110;2023-02-28T17:32:08;96200.47;;;8.65;99.29
43450;BME280;29041;42.266;23.110;2023-02-28T17:34:59;96240.34;;;9.31;97.45
43450;BME280;29041;42.266;23.110;2023-02-28T17:38:14;96227.53;;;9.05;98.23
43450;BME280;29041;42.266;23.110;2023-02-28T17:41:04;96210.38;;;8.93;98.17
43450;BME280;29041;42.266;23.110;2023-02-28T17:44:19;96216.28;;;9.17;97.67
43450;BME280;29041;42.266;23.110;2023-02-28T18:17:55;96229.03;;;8.84;99.05
43450;BME280;29041;42.266;23.110;2023-02-28T18:20:44;96239.41;;;9.13;97.72
43450;BME280;29041;42.266;23.110;2023-02-28T18:23:38;96196.22;;;8.92;96.86
43450;BME280;29041;42.266;23.110;2023-02-28T18:26:36;96209.03;;;9.18;96.37
43450;BME280;29041;42.266;23.110;2023-02-28T18:29:29;96229.75;;;9.26;95.95
43450;BME280;29041;42.266;23.110;2023-02-28T18:32:40;96225.09;;;9.32;94.82
43450;BME280;29041;42.266;23.110;2023-02-28T18:35:30;96215.41;;;9.22;94.78
43450;BME280;29041;42.266;23.110;2023-02-28T18:38:21;96236.13;;;9.30;94.28
43450;BME280;29041;42.266;23.110;2023-02-28T18:41:10;96237.44;;;9.56;94.01
43450;BME280;29041;42.266;23.110;2023-02-28T18:44:00;96233.56;;;9.11;95.98
43450;BME280;29041;42.266;23.110;2023-02-28T18:46:51;96236.25;;;8.83;96.44
43450;BME280;29041;42.266;23.110;2023-02-28T18:49:39;96222.38;;;8.95;95.65
43450;BME280;29041;42.266;23.110;2023-02-28T18:52:28;96244.78;;;8.99;96.16
43450;BME280;29041;42.266;23.110;2023-02-28T18:55:17;96239.13;;;8.87;96.28
43450;BME280;29041;42.266;23.110;2023-02-28T18:58:09;96242.59;;;9.01;95.65
43450;BME280;29041;42.266;23.110;2023-02-28T19:00:57;96227.88;;;8.29;97.71
43450;BME280;29041;42.266;23.110;2023-02-28T19:03:47;96242.31;;;8.89;96.22
43450;BME280;29041;42.266;23.110;2023-02-28T19:06:36;96235.75;;;8.53;97.35
43450;BME280;29041;42.266;23.110;2023-02-28T19:09:31;96240.03;;;8.68;97.57
43450;BME280;29041;42.266;23.110;2023-02-28T19:26:29;96216.47;;;8.23;97.47
43450;BME280;29041;42.266;23.110;2023-02-28T19:29:18;96237.47;;;8.16;97.88
43450;BME280;29041;42.266;23.110;2023-02-28T19:32:07;96254.81;;;8.52;97.39
43450;BME280;29041;42.266;23.110;2023-02-28T19:35:01;96229.53;;;8.11;97.72
43450;BME280;29041;42.266;23.110;2023-02-28T19:37:52;96270.13;;;8.32;97.90
43450;BME280;29041;42.266;23.110;2023-02-28T19:40:40;96266.53;;;8.23;98.47
43450;BME280;29041;42.266;23.110;2023-02-28T19:43:39;96264.16;;;8.35;98.62
43450;BME280;29041;42.266;23.110;2023-02-28T19:46:27;96251.56;;;8.22;97.86
43450;BME280;29041;42.266;23.110;2023-02-28T19:49:16;96262.09;;;8.46;97.24
43450;BME280;29041;42.266;23.110;2023-02-28T19:52:08;96253.16;;;8.23;97.73
43450;BME280;29041;42.266;23.110;2023-02-28T19:54:58;96275.47;;;8.46;96.81
43450;BME280;29041;42.266;23.110;2023-02-28T19:57:46;96247.31;;;8.35;96.62
43450;BME280;29041;42.266;23.110;2023-02-28T20:00:37;65089.22;;;-147.77;100.00
43450;BME280;29041;42.266;23.110;2023-02-28T20:03:24;65089.22;;;-147.77;100.00
43450;BME280;29041;42.266;23.110;2023-02-28T20:06:12;65089.22;;;-147.77;100.00
43450;BME280;29041;42.266;23.110;2023-02-28T20:09:05;65089.22;;;-147.77;100.00
43450;BME280;29041;42.266;23.110;2023-02-28T20:11:52;65089.22;;;-147.77;100.00
43450;BME280;29041;42.266;23.110;2023-02-28T20:14:43;65089.22;;;-147.77;100.00
43450;BME280;29041;42.266;23.110;2023-02-28T20:17:35;65089.22;;;-147.77;100.00
43450;BME280;29041;42.266;23.110;2023-02-28T20:20:23;65089.22;;;-147.77;100.00
43450;BME280;29041;42.266;23.110;2023-02-28T20:23:10;65089.22;;;-147.77;100.00
43450;BME280;29041;42.266;23.110;2023-02-28T20:25:58;65089.22;;;-147.77;100.00
43450;BME280;29041;42.266;23.110;2023-02-28T20:28:45;65089.22;;;-147.77;100.00
43450;BME280;29041;42.266;23.110;2023-02-28T20:31:35;65089.22;;;-147.77;100.00
43450;BME280;29041;42.266;23.110;2023-02-28T20:34:24;65089.22;;;-147.77;100.00
43450;BME280;29041;42.266;23.110;2023-02-28T20:37:11;65089.22;;;-147.77;100.00
43450;BME280;29041;42.266;23.110;2023-02-28T20:39:58;65089.22;;;-147.77;100.00
43450;BME280;29041;42.266;23.110;2023-02-28T20:42:46;65089.22;;;-147.77;100.00
43450;BME280;29041;42.266;23.110;2023-02-28T20:45:33;65089.22;;;-147.77;100.00
43450;BME280;29041;42.266;23.110;2023-02-28T20:48:21;65089.22;;;-147.77;100.00
43450;BME280;29041;42.266;23.110;2023-02-28T20:51:10;65089.22;;;-147.77;100.00
43450;BME280;29041;42.266;23.110;2023-02-28T20:53:57;65089.22;;;-147.77;100.00
43450;BME280;29041;42.266;23.110;2023-02-28T20:56:44;65089.22;;;-147.77;100.00
43450;BME280;29041;42.266;23.110;2023-02-28T20:59:32;65089.22;;;-147.77;100.00
43450;BME280;29041;42.266;23.110;2023-02-28T21:02:19;65089.22;;;-147.77;100.00
43450;BME280;29041;42.266;23.110;2023-02-28T21:05:07;65089.22;;;-147.77;100.00
43450;BME280;29041;42.266;23.110;2023-02-28T21:07:58;65089.22;;;-147.77;100.00
43450;BME280;29041;42.266;23.110;2023-02-28T21:10:46;65089.22;;;-147.77;100.00
43450;BME280;29041;42.266;23.110;2023-02-28T21:13:33;65089.22;;;-147.77;100.00
43450;BME280;29041;42.266;23.110;2023-02-28T21:16:23;65089.22;;;-147.77;100.00